sensor_id;sensor_type;location;lat;lon;timestamp;P1;durP1;ratioP1;P2;durP2;ratioP2
68126;SDS011;54931;52.098;21.006;2022-07-23T00:01:28;26.80;;;16.40;;
68126;SDS011;54931;52.098;21.006;2022-07-23T00:03:55;24.00;;;15.60;;
68126;SDS011;54931;52.098;21.006;2022-07-23T00:06:24;22.30;;;14.90;;
68126;SDS011;54931;52.098;21.006;2022-07-23T00:08:52;22.40;;;14.90;;
68126;SDS011;54931;52.098;21.006;2022-07-23T00:11:20;18.60;;;13.40;;
68126;SDS011;54931;52.098;21.006;2022-07-23T00:13:48;19.90;;;13.40;;
68126;SDS011;54931;52.098;21.006;2022-07-23T00:16:16;19.80;;;13.60;;
68126;SDS011;54931;52.098;21.006;2022-07-23T00:18:43;23.80;;;14.90;;
68126;SDS011;54931;52.098;21.006;2022-07-23T00:21:10;21.00;;;15.10;;
68126;SDS011;54931;52.098;21.006;2022-07-23T00:23:37;26.70;;;15.80;;
68126;SDS011;54931;52.098;21.006;2022-07-23T00:26:05;27.20;;;15.70;;
68126;SDS011;54931;52.098;21.006;2022-07-23T00:28:34;20.90;;;14.50;;
68126;SDS011;54931;52.098;21.006;2022-07-23T00:31:02;22.00;;;13.70;;
68126;SDS011;54931;52.098;21.006;2022-07-23T00:33:29;26.40;;;13.70;;
68126;SDS011;54931;52.098;21.006;2022-07-23T00:35:57;20.20;;;13.70;;
68126;SDS011;54931;52.098;21.006;2022-07-23T00:38:25;22.20;;;15.30;;
68126;SDS011;54931;52.098;21.006;2022-07-23T00:40:52;23.30;;;15.70;;
68126;SDS011;54931;52.098;21.006;2022-07-23T00:43:20;24.00;;;16.10;;
68126;SDS011;54931;52.098;21.006;2022-07-23T00:45:49;20.50;;;15.00;;
68126;SDS011;54931;52.098;21.006;2022-07-23T00:48:16;22.10;;;14.30;;
68126;SDS011;54931;52.098;21.006;2022-07-23T00:50:43;22.60;;;14.60;;
68126;SDS011;54931;52.098;21.006;2022-07-23T00:53:11;20.60;;;14.70;;
68126;SDS011;54931;52.098;21.006;2022-07-23T00:55:39;21.30;;;14.80;;
68126;SDS011;54931;52.098;21.006;2022-07-23T00:58:07;21.00;;;14.60;;
68126;SDS011;54931;52.098;21.006;2022-07-23T01:00:36;22.50;;;15.60;;
68126;SDS011;54931;52.098;21.006;2022-07-23T01:03:03;22.30;;;14.80;;
68126;SDS011;54931;52.098;21.006;2022-07-23T01:05:31;20.30;;;14.00;;
68126;SDS011;54931;52.098;21.006;2022-07-23T01:07:58;19.40;;;13.90;;
68126;SDS011;54931;52.098;21.006;2022-07-23T01:11:19;20.00;;;13.90;;
68126;SDS011;54931;52.098;21.006;2022-07-23T01:13:47;20.50;;;15.00;;
68126;SDS011;54931;52.098;21.006;2022-07-23T01:16:15;25.00;;;15.00;;
68126;SDS011;54931;52.098;21.006;2022-07-23T01:18:42;22.00;;;15.70;;
68126;SDS011;54931;52.098;21.006;2022-07-23T01:21:12;22.70;;;15.30;;
68126;SDS011;54931;52.098;21.006;2022-07-23T01:23:40;20.50;;;14.20;;
68126;SDS011;54931;52.098;21.006;2022-07-23T01:26:08;23.00;;;14.80;;
68126;SDS011;54931;52.098;21.006;2022-07-23T01:28:35;23.60;;;15.10;;
68126;SDS011;54931;52.098;21.006;2022-07-23T01:31:02;22.90;;;15.60;;
68126;SDS011;54931;52.098;21.006;2022-07-23T01:33:29;24.30;;;16.20;;
68126;SDS011;54931;52.098;21.006;2022-07-23T01:35:57;25.40;;;17.10;;
68126;SDS011;54931;52.098;21.006;2022-07-23T01:38:24;22.00;;;15.40;;
68126;SDS011;54931;52.098;21.006;2022-07-23T01:40:51;23.80;;;15.00;;
68126;SDS011;54931;52.098;21.006;2022-07-23T01:43:18;19.60;;;14.40;;
68126;SDS011;54931;52.098;21.006;2022-07-23T01:45:45;25.90;;;15.20;;
68126;SDS011;54931;52.098;21.006;2022-07-23T01:48:12;22.10;;;15.20;;
68126;SDS011;54931;52.098;21.006;2022-07-23T01:50:40;28.50;;;16.40;;
68126;SDS011;54931;52.098;21.006;2022-07-23T01:53:07;27.30;;;16.80;;
68126;SDS011;54931;52.098;21.006;2022-07-23T01:55:35;25.30;;;16.90;;
68126;SDS011;54931;52.098;21.006;2022-07-23T01:58:02;27.10;;;15.60;;
68126;SDS011;54931;52.098;21.006;2022-07-23T02:00:29;24.70;;;15.40;;
68126;SDS011;54931;52.098;21.006;2022-07-23T02:02:56;23.30;;;15.40;;
68126;SDS011;54931;52.098;21.006;2022-07-23T02:05:26;23.50;;;15.30;;
68126;SDS011;54931;52.098;21.006;2022-07-23T02:07:55;25.20;;;16.10;;
68126;SDS011;54931;52.098;21.006;2022-07-23T02:10:22;27.30;;;15.70;;
68126;SDS011;54931;52.098;21.006;2022-07-23T02:12:50;21.60;;;14.10;;
68126;SDS011;54931;52.098;21.006;2022-07-23T02:15:17;23.90;;;15.40;;
68126;SDS011;54931;52.098;21.006;2022-07-23T02:17:44;22.50;;;15.30;;
68126;SDS011;54931;52.098;21.006;2022-07-23T02:20:12;25.10;;;15.90;;
68126;SDS011;54931;52.098;21.006;2022-07-23T02:22:39;22.80;;;16.40;;
68126;SDS011;54931;52.098;21.006;2022-07-23T02:25:07;24.70;;;16.30;;
68126;SDS011;54931;52.098;21.006;2022-07-23T02:27:36;23.60;;;13.90;;
68126;SDS011;54931;52.098;21.006;2022-07-23T02:30:04;21.40;;;14.30;;
68126;SDS011;54931;52.098;21.006;2022-07-23T02:32:32;22.80;;;14.20;;
68126;SDS011;54931;52.098;21.006;2022-07-23T02:35:00;23.00;;;14.40;;
68126;SDS011;54931;52.098;21.006;2022-07-23T02:37:28;25.40;;;15.50;;
68126;SDS011;54931;52.098;21.006;2022-07-23T02:39:55;21.70;;;15.90;;
68126;SDS011;54931;52.098;21.006;2022-07-23T02:42:22;21.50;;;15.90;;
68126;SDS011;54931;52.098;21.006;2022-07-23T02:44:51;24.70;;;15.20;;
68126;SDS011;54931;52.098;21.006;2022-07-23T02:47:18;23.80;;;15.40;;
68126;SDS011;54931;52.098;21.006;2022-07-23T02:49:46;22.70;;;14.20;;
68126;SDS011;54931;52.098;21.006;2022-07-23T02:52:13;21.40;;;14.30;;
68126;SDS011;54931;52.098;21.006;2022-07-23T02:54:40;21.00;;;15.00;;
68126;SDS011;54931;52.098;21.006;2022-07-23T02:57:07;26.80;;;16.60;;
68126;SDS011;54931;52.098;21.006;2022-07-23T02:59:35;24.20;;;15.70;;
68126;SDS011;54931;52.098;21.006;2022-07-23T03:02:02;25.60;;;16.20;;
68126;SDS011;54931;52.098;21.006;2022-07-23T03:04:29;23.30;;;15.60;;
68126;SDS011;54931;52.098;21.006;2022-07-23T03:06:56;22.50;;;14.40;;
68126;SDS011;54931;52.098;21.006;2022-07-23T03:09:23;21.80;;;14.80;;
68126;SDS011;54931;52.098;21.006;2022-07-23T03:11:50;21.00;;;14.60;;
68126;SDS011;54931;52.098;21.006;2022-07-23T03:14:17;19.90;;;13.30;;
68126;SDS011;54931;52.098;21.006;2022-07-23T03:16:45;20.10;;;15.40;;
68126;SDS011;54931;52.098;21.006;2022-07-23T03:19:12;22.10;;;15.90;;
68126;SDS011;54931;52.098;21.006;2022-07-23T03:21:39;27.40;;;16.90;;
68126;SDS011;54931;52.098;21.006;2022-07-23T03:24:08;24.30;;;15.80;;
68126;SDS011;54931;52.098;21.006;2022-07-23T03:26:36;25.60;;;15.70;;
68126;SDS011;54931;52.098;21.006;2022-07-23T03:29:04;23.90;;;15.80;;
68126;SDS011;54931;52.098;21.006;2022-07-23T03:31:31;24.90;;;16.00;;
68126;SDS011;54931;52.098;21.006;2022-07-23T03:33:58;31.10;;;18.00;;
68126;SDS011;54931;52.098;21.006;2022-07-23T03:36:25;28.90;;;14.60;;
68126;SDS011;54931;52.098;21.006;2022-07-23T03:38:53;31.20;;;15.90;;
68126;SDS011;54931;52.098;21.006;2022-07-23T03:41:20;26.10;;;15.40;;
68126;SDS011;54931;52.098;21.006;2022-07-23T03:43:48;27.50;;;16.40;;
68126;SDS011;54931;52.098;21.006;2022-07-23T03:46:15;29.80;;;16.30;;
68126;SDS011;54931;52.098;21.006;2022-07-23T03:48:42;27.10;;;17.00;;
68126;SDS011;54931;52.098;21.006;2022-07-23T03:51:09;28.90;;;15.90;;
68126;SDS011;54931;52.098;21.006;2022-07-23T03:53:37;33.30;;;15.60;;
68126;SDS011;54931;52.098;21.006;2022-07-23T03:56:04;25.00;;;16.00;;
68126;SDS011;54931;52.098;21.006;2022-07-23T03:58:32;26.90;;;15.80;;
68126;SDS011;54931;52.098;21.006;2022-07-23T04:00:59;25.00;;;14.90;;
68126;SDS011;54931;52.098;21.006;2022-07-23T04:03:26;26.20;;;14.80;;
68126;SDS011;54931;52.098;21.006;2022-07-23T04:05:53;24.20;;;15.80;;
68126;SDS011;54931;52.098;21.006;2022-07-23T04:08:20;26.90;;;16.20;;
68126;SDS011;54931;52.098;21.006;2022-07-23T04:10:48;21.40;;;15.00;;
68126;SDS011;54931;52.098;21.006;2022-07-23T04:13:15;23.20;;;14.80;;
68126;SDS011;54931;52.098;21.006;2022-07-23T04:15:43;25.70;;;16.20;;
68126;SDS011;54931;52.098;21.006;2022-07-23T04:18:10;22.80;;;15.50;;
68126;SDS011;54931;52.098;21.006;2022-07-23T04:20:37;25.20;;;15.90;;
68126;SDS011;54931;52.098;21.006;2022-07-23T04:23:04;24.00;;;15.90;;
68126;SDS011;54931;52.098;21.006;2022-07-23T04:25:31;21.90;;;15.30;;
68126;SDS011;54931;52.098;21.006;2022-07-23T04:27:59;23.60;;;15.80;;
68126;SDS011;54931;52.098;21.006;2022-07-23T04:30:26;22.60;;;15.00;;
68126;SDS011;54931;52.098;21.006;2022-07-23T04:32:53;21.30;;;15.70;;
68126;SDS011;54931;52.098;21.006;2022-07-23T04:35:20;21.40;;;15.10;;
68126;SDS011;54931;52.098;21.006;2022-07-23T04:37:48;20.80;;;15.00;;
68126;SDS011;54931;52.098;21.006;2022-07-23T04:40:15;24.90;;;15.10;;
68126;SDS011;54931;52.098;21.006;2022-07-23T04:42:42;19.40;;;14.60;;
68126;SDS011;54931;52.098;21.006;2022-07-23T04:45:09;24.00;;;14.80;;
68126;SDS011;54931;52.098;21.006;2022-07-23T04:47:37;23.40;;;15.60;;
68126;SDS011;54931;52.098;21.006;2022-07-23T04:50:04;22.50;;;15.10;;
68126;SDS011;54931;52.098;21.006;2022-07-23T04:52:32;22.60;;;15.30;;
68126;SDS011;54931;52.098;21.006;2022-07-23T04:54:59;23.60;;;15.30;;
68126;SDS011;54931;52.098;21.006;2022-07-23T04:57:27;19.20;;;13.40;;
68126;SDS011;54931;52.098;21.006;2022-07-23T04:59:54;20.20;;;13.90;;
68126;SDS011;54931;52.098;21.006;2022-07-23T05:02:21;21.60;;;14.70;;
68126;SDS011;54931;52.098;21.006;2022-07-23T05:04:48;22.90;;;14.90;;
68126;SDS011;54931;52.098;21.006;2022-07-23T05:07:15;20.10;;;14.10;;
68126;SDS011;54931;52.098;21.006;2022-07-23T05:09:42;26.40;;;14.60;;
68126;SDS011;54931;52.098;21.006;2022-07-23T05:12:10;20.10;;;14.30;;
68126;SDS011;54931;52.098;21.006;2022-07-23T05:14:37;19.40;;;14.30;;
68126;SDS011;54931;52.098;21.006;2022-07-23T05:17:04;24.30;;;14.10;;
68126;SDS011;54931;52.098;21.006;2022-07-23T05:19:31;21.70;;;14.80;;
68126;SDS011;54931;52.098;21.006;2022-07-23T05:21:58;25.10;;;14.50;;
68126;SDS011;54931;52.098;21.006;2022-07-23T05:24:25;20.50;;;13.70;;
68126;SDS011;54931;52.098;21.006;2022-07-23T05:26:53;23.20;;;14.60;;
68126;SDS011;54931;52.098;21.006;2022-07-23T05:29:20;18.80;;;13.30;;
68126;SDS011;54931;52.098;21.006;2022-07-23T05:31:47;21.20;;;13.20;;
68126;SDS011;54931;52.098;21.006;2022-07-23T05:34:14;18.30;;;14.00;;
68126;SDS011;54931;52.098;21.006;2022-07-23T05:36:42;22.60;;;12.70;;
68126;SDS011;54931;52.098;21.006;2022-07-23T05:39:09;17.30;;;12.50;;
68126;SDS011;54931;52.098;21.006;2022-07-23T05:41:36;16.90;;;12.70;;
68126;SDS011;54931;52.098;21.006;2022-07-23T05:44:03;18.10;;;12.80;;
68126;SDS011;54931;52.098;21.006;2022-07-23T05:46:31;17.70;;;11.90;;
68126;SDS011;54931;52.098;21.006;2022-07-23T05:48:58;18.00;;;12.20;;
68126;SDS011;54931;52.098;21.006;2022-07-23T05:51:25;18.80;;;11.60;;
68126;SDS011;54931;52.098;21.006;2022-07-23T05:53:53;15.70;;;11.10;;
68126;SDS011;54931;52.098;21.006;2022-07-23T05:56:22;14.00;;;11.10;;
68126;SDS011;54931;52.098;21.006;2022-07-23T05:58:49;17.40;;;11.80;;
68126;SDS011;54931;52.098;21.006;2022-07-23T06:01:16;16.60;;;11.60;;
68126;SDS011;54931;52.098;21.006;2022-07-23T06:03:44;13.60;;;10.50;;
68126;SDS011;54931;52.098;21.006;2022-07-23T06:06:11;12.70;;;10.20;;
68126;SDS011;54931;52.098;21.006;2022-07-23T06:08:38;16.30;;;10.00;;
68126;SDS011;54931;52.098;21.006;2022-07-23T06:11:05;12.40;;;10.00;;
68126;SDS011;54931;52.098;21.006;2022-07-23T06:13:33;16.80;;;10.30;;
68126;SDS011;54931;52.098;21.006;2022-07-23T06:16:00;11.40;;;9.80;;
68126;SDS011;54931;52.098;21.006;2022-07-23T06:18:27;15.30;;;9.90;;
68126;SDS011;54931;52.098;21.006;2022-07-23T06:20:54;16.30;;;10.00;;
68126;SDS011;54931;52.098;21.006;2022-07-23T06:23:22;17.20;;;10.40;;
68126;SDS011;54931;52.098;21.006;2022-07-23T06:25:49;17.00;;;10.10;;
68126;SDS011;54931;52.098;21.006;2022-07-23T06:28:16;16.50;;;9.30;;
68126;SDS011;54931;52.098;21.006;2022-07-23T06:30:44;14.60;;;9.40;;
68126;SDS011;54931;52.098;21.006;2022-07-23T06:33:11;15.90;;;9.80;;
68126;SDS011;54931;52.098;21.006;2022-07-23T06:35:39;12.50;;;9.70;;
68126;SDS011;54931;52.098;21.006;2022-07-23T06:38:07;10.50;;;9.00;;
68126;SDS011;54931;52.098;21.006;2022-07-23T06:40:34;14.90;;;8.80;;
68126;SDS011;54931;52.098;21.006;2022-07-23T06:43:01;18.70;;;9.70;;
68126;SDS011;54931;52.098;21.006;2022-07-23T06:45:29;9.60;;;8.40;;
68126;SDS011;54931;52.098;21.006;2022-07-23T06:47:56;9.80;;;8.70;;
68126;SDS011;54931;52.098;21.006;2022-07-23T06:50:24;9.90;;;8.70;;
68126;SDS011;54931;52.098;21.006;2022-07-23T06:52:51;14.60;;;8.50;;
68126;SDS011;54931;52.098;21.006;2022-07-23T06:55:18;11.60;;;8.20;;
68126;SDS011;54931;52.098;21.006;2022-07-23T06:57:46;11.60;;;8.00;;
68126;SDS011;54931;52.098;21.006;2022-07-23T07:00:13;9.60;;;8.10;;
68126;SDS011;54931;52.098;21.006;2022-07-23T07:02:41;12.10;;;8.50;;
68126;SDS011;54931;52.098;21.006;2022-07-23T07:05:08;10.50;;;8.50;;
68126;SDS011;54931;52.098;21.006;2022-07-23T07:07:35;11.50;;;8.80;;
68126;SDS011;54931;52.098;21.006;2022-07-23T07:10:04;10.40;;;9.00;;
68126;SDS011;54931;52.098;21.006;2022-07-23T07:12:31;16.00;;;8.80;;
68126;SDS011;54931;52.098;21.006;2022-07-23T07:14:59;12.00;;;8.60;;
68126;SDS011;54931;52.098;21.006;2022-07-23T07:17:26;9.60;;;8.50;;
68126;SDS011;54931;52.098;21.006;2022-07-23T07:19:53;13.70;;;8.80;;
68126;SDS011;54931;52.098;21.006;2022-07-23T07:22:21;10.50;;;8.50;;
68126;SDS011;54931;52.098;21.006;2022-07-23T07:24:48;12.90;;;8.70;;
68126;SDS011;54931;52.098;21.006;2022-07-23T07:27:15;11.90;;;8.60;;
68126;SDS011;54931;52.098;21.006;2022-07-23T07:29:43;10.80;;;7.90;;
68126;SDS011;54931;52.098;21.006;2022-07-23T07:32:10;11.40;;;8.00;;
68126;SDS011;54931;52.098;21.006;2022-07-23T07:34:37;9.10;;;7.70;;
68126;SDS011;54931;52.098;21.006;2022-07-23T07:37:05;9.20;;;8.20;;
68126;SDS011;54931;52.098;21.006;2022-07-23T07:39:32;10.80;;;7.60;;
68126;SDS011;54931;52.098;21.006;2022-07-23T07:41:59;11.40;;;7.90;;
68126;SDS011;54931;52.098;21.006;2022-07-23T07:44:26;9.40;;;8.30;;
68126;SDS011;54931;52.098;21.006;2022-07-23T07:46:54;12.10;;;8.20;;
68126;SDS011;54931;52.098;21.006;2022-07-23T07:49:21;10.80;;;7.80;;
68126;SDS011;54931;52.098;21.006;2022-07-23T07:51:49;11.10;;;7.70;;
68126;SDS011;54931;52.098;21.006;2022-07-23T07:54:16;10.30;;;8.00;;
68126;SDS011;54931;52.098;21.006;2022-07-23T07:56:44;11.20;;;7.90;;
68126;SDS011;54931;52.098;21.006;2022-07-23T07:59:11;10.70;;;7.80;;
68126;SDS011;54931;52.098;21.006;2022-07-23T08:01:38;12.30;;;7.70;;
68126;SDS011;54931;52.098;21.006;2022-07-23T08:04:05;11.90;;;7.50;;
68126;SDS011;54931;52.098;21.006;2022-07-23T08:06:33;11.20;;;7.40;;
68126;SDS011;54931;52.098;21.006;2022-07-23T08:09:00;8.20;;;7.20;;
68126;SDS011;54931;52.098;21.006;2022-07-23T08:11:27;9.00;;;7.60;;
68126;SDS011;54931;52.098;21.006;2022-07-23T08:13:54;8.30;;;7.40;;
68126;SDS011;54931;52.098;21.006;2022-07-23T08:16:22;10.00;;;6.80;;
68126;SDS011;54931;52.098;21.006;2022-07-23T08:18:49;9.70;;;6.80;;
68126;SDS011;54931;52.098;21.006;2022-07-23T08:21:16;9.00;;;6.60;;
68126;SDS011;54931;52.098;21.006;2022-07-23T08:23:44;10.10;;;6.90;;
68126;SDS011;54931;52.098;21.006;2022-07-23T08:26:11;9.20;;;7.30;;
68126;SDS011;54931;52.098;21.006;2022-07-23T08:28:39;10.00;;;7.00;;
68126;SDS011;54931;52.098;21.006;2022-07-23T08:31:06;8.70;;;6.70;;
68126;SDS011;54931;52.098;21.006;2022-07-23T08:33:34;9.70;;;7.20;;
68126;SDS011;54931;52.098;21.006;2022-07-23T08:36:03;8.80;;;6.80;;
68126;SDS011;54931;52.098;21.006;2022-07-23T08:38:31;10.50;;;6.80;;
68126;SDS011;54931;52.098;21.006;2022-07-23T08:41:00;11.00;;;7.30;;
68126;SDS011;54931;52.098;21.006;2022-07-23T08:43:31;11.90;;;7.20;;
68126;SDS011;54931;52.098;21.006;2022-07-23T08:46:03;7.70;;;6.90;;
68126;SDS011;54931;52.098;21.006;2022-07-23T08:48:32;7.30;;;6.60;;
68126;SDS011;54931;52.098;21.006;2022-07-23T08:51:04;9.40;;;7.60;;
68126;SDS011;54931;52.098;21.006;2022-07-23T08:53:33;8.90;;;6.90;;
68126;SDS011;54931;52.098;21.006;2022-07-23T08:56:06;9.50;;;6.70;;
68126;SDS011;54931;52.098;21.006;2022-07-23T08:58:35;12.60;;;7.00;;
68126;SDS011;54931;52.098;21.006;2022-07-23T09:01:03;11.10;;;7.30;;
68126;SDS011;54931;52.098;21.006;2022-07-23T09:03:33;11.30;;;7.40;;
68126;SDS011;54931;52.098;21.006;2022-07-23T09:06:03;7.70;;;6.60;;
68126;SDS011;54931;52.098;21.006;2022-07-23T09:08:37;11.20;;;6.70;;
68126;SDS011;54931;52.098;21.006;2022-07-23T09:11:08;9.50;;;7.60;;
68126;SDS011;54931;52.098;21.006;2022-07-23T09:13:40;10.50;;;6.90;;
68126;SDS011;54931;52.098;21.006;2022-07-23T09:16:15;11.40;;;7.30;;
68126;SDS011;54931;52.098;21.006;2022-07-23T09:18:48;10.90;;;7.10;;
68126;SDS011;54931;52.098;21.006;2022-07-23T09:21:18;9.60;;;7.00;;
68126;SDS011;54931;52.098;21.006;2022-07-23T09:24:06;10.20;;;7.20;;
68126;SDS011;54931;52.098;21.006;2022-07-23T09:26:40;10.20;;;7.60;;
68126;SDS011;54931;52.098;21.006;2022-07-23T09:29:25;8.40;;;7.20;;
68126;SDS011;54931;52.098;21.006;2022-07-23T09:32:01;8.60;;;7.20;;
68126;SDS011;54931;52.098;21.006;2022-07-23T09:34:36;9.50;;;7.40;;
68126;SDS011;54931;52.098;21.006;2022-07-23T09:39:45;8.60;;;6.50;;
68126;SDS011;54931;52.098;21.006;2022-07-23T09:47:32;7.60;;;6.60;;
68126;SDS011;54931;52.098;21.006;2022-07-23T09:50:08;10.40;;;6.70;;
68126;SDS011;54931;52.098;21.006;2022-07-23T09:52:48;9.50;;;6.30;;
68126;SDS011;54931;52.098;21.006;2022-07-23T09:55:17;8.60;;;7.00;;
68126;SDS011;54931;52.098;21.006;2022-07-23T09:57:46;8.50;;;6.90;;
68126;SDS011;54931;52.098;21.006;2022-07-23T10:00:17;8.40;;;6.70;;
68126;SDS011;54931;52.098;21.006;2022-07-23T10:02:47;11.50;;;7.00;;
68126;SDS011;54931;52.098;21.006;2022-07-23T10:05:16;8.80;;;7.00;;
68126;SDS011;54931;52.098;21.006;2022-07-23T10:07:45;11.90;;;6.70;;
68126;SDS011;54931;52.098;21.006;2022-07-23T10:10:13;7.90;;;6.20;;
68126;SDS011;54931;52.098;21.006;2022-07-23T10:12:44;8.70;;;6.10;;
68126;SDS011;54931;52.098;21.006;2022-07-23T10:15:31;8.70;;;6.50;;
68126;SDS011;54931;52.098;21.006;2022-07-23T10:17:59;8.40;;;6.60;;
68126;SDS011;54931;52.098;21.006;2022-07-23T10:20:26;7.90;;;6.30;;
68126;SDS011;54931;52.098;21.006;2022-07-23T10:23:10;9.90;;;6.60;;
68126;SDS011;54931;52.098;21.006;2022-07-23T10:26:21;9.00;;;6.60;;
68126;SDS011;54931;52.098;21.006;2022-07-23T10:29:36;7.50;;;6.50;;
68126;SDS011;54931;52.098;21.006;2022-07-23T10:32:25;8.50;;;6.90;;
68126;SDS011;54931;52.098;21.006;2022-07-23T10:37:55;7.70;;;6.20;;
68126;SDS011;54931;52.098;21.006;2022-07-23T10:40:30;10.40;;;6.40;;
68126;SDS011;54931;52.098;21.006;2022-07-23T10:42:59;8.90;;;6.60;;
68126;SDS011;54931;52.098;21.006;2022-07-23T10:45:31;8.30;;;6.50;;
68126;SDS011;54931;52.098;21.006;2022-07-23T10:48:13;10.10;;;6.60;;
68126;SDS011;54931;52.098;21.006;2022-07-23T10:57:04;11.70;;;6.10;;
68126;SDS011;54931;52.098;21.006;2022-07-23T11:02:33;7.50;;;6.20;;
68126;SDS011;54931;52.098;21.006;2022-07-23T11:07:36;7.20;;;6.40;;
68126;SDS011;54931;52.098;21.006;2022-07-23T11:10:53;9.00;;;6.50;;
68126;SDS011;54931;52.098;21.006;2022-07-23T11:16:21;8.70;;;6.10;;
68126;SDS011;54931;52.098;21.006;2022-07-23T11:18:58;8.20;;;7.40;;
68126;SDS011;54931;52.098;21.006;2022-07-23T11:26:43;9.50;;;6.80;;
68126;SDS011;54931;52.098;21.006;2022-07-23T11:32:06;11.50;;;7.20;;
68126;SDS011;54931;52.098;21.006;2022-07-23T11:37:08;9.70;;;6.90;;
68126;SDS011;54931;52.098;21.006;2022-07-23T11:39:38;12.40;;;7.30;;
68126;SDS011;54931;52.098;21.006;2022-07-23T11:42:07;10.40;;;6.90;;
68126;SDS011;54931;52.098;21.006;2022-07-23T11:44:39;12.10;;;8.10;;
68126;SDS011;54931;52.098;21.006;2022-07-23T11:47:09;12.90;;;7.60;;
68126;SDS011;54931;52.098;21.006;2022-07-23T11:50:02;11.90;;;7.70;;
68126;SDS011;54931;52.098;21.006;2022-07-23T11:52:31;9.10;;;7.50;;
68126;SDS011;54931;52.098;21.006;2022-07-23T11:55:10;11.60;;;7.80;;
68126;SDS011;54931;52.098;21.006;2022-07-23T11:57:40;10.60;;;7.40;;
68126;SDS011;54931;52.098;21.006;2022-07-23T12:02:51;10.80;;;7.90;;
68126;SDS011;54931;52.098;21.006;2022-07-23T12:05:33;10.70;;;7.40;;
68126;SDS011;54931;52.098;21.006;2022-07-23T12:08:07;8.40;;;7.20;;
68126;SDS011;54931;52.098;21.006;2022-07-23T12:10:40;12.20;;;7.80;;
68126;SDS011;54931;52.098;21.006;2022-07-23T12:13:11;8.00;;;7.10;;
68126;SDS011;54931;52.098;21.006;2022-07-23T12:15:43;9.80;;;7.10;;
68126;SDS011;54931;52.098;21.006;2022-07-23T12:18:16;8.70;;;7.00;;
68126;SDS011;54931;52.098;21.006;2022-07-23T12:20:56;8.30;;;7.30;;
68126;SDS011;54931;52.098;21.006;2022-07-23T12:23:29;10.30;;;7.40;;
68126;SDS011;54931;52.098;21.006;2022-07-23T12:26:01;8.50;;;7.10;;
68126;SDS011;54931;52.098;21.006;2022-07-23T12:28:33;9.80;;;7.20;;
68126;SDS011;54931;52.098;21.006;2022-07-23T12:31:04;8.70;;;7.30;;
68126;SDS011;54931;52.098;21.006;2022-07-23T12:33:38;11.80;;;8.00;;
68126;SDS011;54931;52.098;21.006;2022-07-23T12:36:08;8.60;;;7.10;;
68126;SDS011;54931;52.098;21.006;2022-07-23T12:38:42;8.70;;;7.10;;
68126;SDS011;54931;52.098;21.006;2022-07-23T12:43:43;7.90;;;7.10;;
68126;SDS011;54931;52.098;21.006;2022-07-23T12:46:17;10.70;;;7.80;;
68126;SDS011;54931;52.098;21.006;2022-07-23T12:48:51;10.90;;;7.80;;
68126;SDS011;54931;52.098;21.006;2022-07-23T12:53:52;7.60;;;6.40;;
68126;SDS011;54931;52.098;21.006;2022-07-23T12:56:30;11.50;;;7.30;;
68126;SDS011;54931;52.098;21.006;2022-07-23T12:59:10;10.40;;;7.90;;
68126;SDS011;54931;52.098;21.006;2022-07-23T13:01:44;12.20;;;8.00;;
68126;SDS011;54931;52.098;21.006;2022-07-23T13:04:22;12.00;;;7.90;;
68126;SDS011;54931;52.098;21.006;2022-07-23T13:06:53;10.50;;;7.60;;
68126;SDS011;54931;52.098;21.006;2022-07-23T13:09:26;11.50;;;7.30;;
68126;SDS011;54931;52.098;21.006;2022-07-23T13:11:57;10.30;;;7.80;;
68126;SDS011;54931;52.098;21.006;2022-07-23T13:14:26;8.70;;;7.70;;
68126;SDS011;54931;52.098;21.006;2022-07-23T13:16:54;9.50;;;7.00;;
68126;SDS011;54931;52.098;21.006;2022-07-23T13:19:22;8.50;;;7.10;;
68126;SDS011;54931;52.098;21.006;2022-07-23T13:21:50;9.20;;;7.00;;
68126;SDS011;54931;52.098;21.006;2022-07-23T13:24:18;7.30;;;6.40;;
68126;SDS011;54931;52.098;21.006;2022-07-23T13:26:45;10.70;;;7.70;;
68126;SDS011;54931;52.098;21.006;2022-07-23T13:29:16;9.90;;;7.30;;
68126;SDS011;54931;52.098;21.006;2022-07-23T13:31:43;10.90;;;7.50;;
68126;SDS011;54931;52.098;21.006;2022-07-23T13:34:10;11.80;;;7.00;;
68126;SDS011;54931;52.098;21.006;2022-07-23T13:36:38;11.10;;;6.80;;
68126;SDS011;54931;52.098;21.006;2022-07-23T13:39:05;7.80;;;6.80;;
68126;SDS011;54931;52.098;21.006;2022-07-23T13:41:33;8.80;;;7.10;;
68126;SDS011;54931;52.098;21.006;2022-07-23T13:44:00;9.50;;;7.20;;
68126;SDS011;54931;52.098;21.006;2022-07-23T13:46:27;7.80;;;6.60;;
68126;SDS011;54931;52.098;21.006;2022-07-23T13:48:55;8.80;;;6.90;;
68126;SDS011;54931;52.098;21.006;2022-07-23T13:51:22;10.30;;;9.10;;
68126;SDS011;54931;52.098;21.006;2022-07-23T13:53:50;13.80;;;9.50;;
68126;SDS011;54931;52.098;21.006;2022-07-23T13:56:18;10.30;;;7.70;;
68126;SDS011;54931;52.098;21.006;2022-07-23T13:58:45;11.30;;;7.50;;
68126;SDS011;54931;52.098;21.006;2022-07-23T14:01:15;10.40;;;7.10;;
68126;SDS011;54931;52.098;21.006;2022-07-23T14:03:49;8.50;;;7.30;;
68126;SDS011;54931;52.098;21.006;2022-07-23T14:06:16;8.40;;;7.20;;
68126;SDS011;54931;52.098;21.006;2022-07-23T14:08:44;9.90;;;8.20;;
68126;SDS011;54931;52.098;21.006;2022-07-23T14:11:12;11.30;;;7.70;;
68126;SDS011;54931;52.098;21.006;2022-07-23T14:13:39;12.40;;;8.00;;
68126;SDS011;54931;52.098;21.006;2022-07-23T14:16:07;9.90;;;7.40;;
68126;SDS011;54931;52.098;21.006;2022-07-23T14:18:35;10.70;;;7.90;;
68126;SDS011;54931;52.098;21.006;2022-07-23T14:21:04;8.30;;;7.30;;
68126;SDS011;54931;52.098;21.006;2022-07-23T14:23:31;11.60;;;8.30;;
68126;SDS011;54931;52.098;21.006;2022-07-23T14:25:58;14.50;;;9.70;;
68126;SDS011;54931;52.098;21.006;2022-07-23T14:28:25;11.00;;;7.50;;
68126;SDS011;54931;52.098;21.006;2022-07-23T14:30:53;9.50;;;8.10;;
68126;SDS011;54931;52.098;21.006;2022-07-23T14:33:20;11.60;;;8.70;;
68126;SDS011;54931;52.098;21.006;2022-07-23T14:35:47;10.50;;;8.40;;
68126;SDS011;54931;52.098;21.006;2022-07-23T14:38:15;11.90;;;8.20;;
68126;SDS011;54931;52.098;21.006;2022-07-23T14:40:42;33.50;;;7.70;;
68126;SDS011;54931;52.098;21.006;2022-07-23T14:43:10;46.90;;;6.80;;
68126;SDS011;54931;52.098;21.006;2022-07-23T14:45:37;39.50;;;5.20;;
68126;SDS011;54931;52.098;21.006;2022-07-23T14:48:05;39.20;;;6.70;;
68126;SDS011;54931;52.098;21.006;2022-07-23T14:50:32;39.40;;;7.10;;
68126;SDS011;54931;52.098;21.006;2022-07-23T14:53:00;25.70;;;6.50;;
68126;SDS011;54931;52.098;21.006;2022-07-23T14:55:27;14.30;;;5.30;;
68126;SDS011;54931;52.098;21.006;2022-07-23T14:57:54;15.70;;;5.60;;
68126;SDS011;54931;52.098;21.006;2022-07-23T15:00:22;8.00;;;4.80;;
68126;SDS011;54931;52.098;21.006;2022-07-23T15:02:49;8.40;;;4.80;;
68126;SDS011;54931;52.098;21.006;2022-07-23T15:05:17;8.20;;;5.30;;
68126;SDS011;54931;52.098;21.006;2022-07-23T15:07:45;6.50;;;5.20;;
68126;SDS011;54931;52.098;21.006;2022-07-23T15:10:13;7.10;;;5.20;;
68126;SDS011;54931;52.098;21.006;2022-07-23T15:12:40;9.10;;;5.30;;
68126;SDS011;54931;52.098;21.006;2022-07-23T15:15:09;8.80;;;5.90;;